sensor_id;sensor_type;location;lat;lon;timestamp;pressure;altitude;pressure_sealevel;temperature;humidity
35778;BME280;21899;42.662;23.316;2024-03-02T00:00:51;93965.47;;;6.81;76.72
35778;BME280;21899;42.662;23.316;2024-03-02T00:03:17;93984.84;;;6.91;76.44
35778;BME280;21899;42.662;23.316;2024-03-02T00:05:43;93988.81;;;6.95;76.43
35778;BME280;21899;42.662;23.316;2024-03-02T00:08:09;93989.09;;;6.97;76.59
35778;BME280;21899;42.662;23.316;2024-03-02T00:13:04;93965.56;;;6.87;76.00
35778;BME280;21899;42.662;23.316;2024-03-02T00:17:56;93982.81;;;7.00;76.68
35778;BME280;21899;42.662;23.316;2024-03-02T00:20:22;93984.31;;;7.01;76.43
35778;BME280;21899;42.662;23.316;2024-03-02T00:22:49;93985.66;;;6.97;76.41
35778;BME280;21899;42.662;23.316;2024-03-02T00:25:15;93967.44;;;6.95;76.25
35778;BME280;21899;42.662;23.316;2024-03-02T00:27:41;93950.00;;;6.85;76.11
35778;BME280;21899;42.662;23.316;2024-03-02T00:33:07;93960.00;;;6.99;75.87
35778;BME280;21899;42.662;23.316;2024-03-02T00:35:33;93966.78;;;7.00;75.66
35778;BME280;21899;42.662;23.316;2024-03-02T00:38:04;93954.38;;;6.97;76.06
35778;BME280;21899;42.662;23.316;2024-03-02T00:40:30;93970.88;;;7.10;75.71
35778;BME280;21899;42.662;23.316;2024-03-02T00:42:56;93957.25;;;7.08;75.48
35778;BME280;21899;42.662;23.316;2024-03-02T00:45:21;93941.03;;;6.97;75.82
35778;BME280;21899;42.662;23.316;2024-03-02T00:47:50;93952.53;;;7.03;75.57
35778;BME280;21899;42.662;23.316;2024-03-02T00:50:16;93957.81;;;7.12;75.39
35778;BME280;21899;42.662;23.316;2024-03-02T00:52:42;93967.75;;;7.12;75.48
35778;BME280;21899;42.662;23.316;2024-03-02T00:55:08;93961.09;;;7.07;75.23
35778;BME280;21899;42.662;23.316;2024-03-02T00:57:35;93964.34;;;7.11;75.39
35778;BME280;21899;42.662;23.316;2024-03-02T01:00:01;93961.31;;;7.18;74.88
35778;BME280;21899;42.662;23.316;2024-03-02T01:02:28;93952.19;;;7.10;75.08
35778;BME280;21899;42.662;23.316;2024-03-02T01:04:54;93965.28;;;7.23;75.39
35778;BME280;21899;42.662;23.316;2024-03-02T01:07:20;93952.84;;;7.20;74.72
35778;BME280;21899;42.662;23.316;2024-03-02T01:09:45;93969.78;;;7.31;74.22
35778;BME280;21899;42.662;23.316;2024-03-02T01:12:11;93927.88;;;7.08;74.36
35778;BME280;21899;42.662;23.316;2024-03-02T01:14:36;93959.66;;;7.35;74.20
35778;BME280;21899;42.662;23.316;2024-03-02T01:17:02;93951.09;;;7.31;74.54
35778;BME280;21899;42.662;23.316;2024-03-02T01:19:30;93947.31;;;7.23;74.85
35778;BME280;21899;42.662;23.316;2024-03-02T01:21:55;93961.50;;;7.29;75.08
35778;BME280;21899;42.662;23.316;2024-03-02T01:24:21;93949.25;;;7.37;74.77
35778;BME280;21899;42.662;23.316;2024-03-02T01:26:46;93942.19;;;7.34;74.13
35778;BME280;21899;42.662;23.316;2024-03-02T01:29:12;93928.56;;;7.32;74.73
35778;BME280;21899;42.662;23.316;2024-03-02T01:31:37;93912.88;;;7.25;74.20
35778;BME280;21899;42.662;23.316;2024-03-02T01:34:05;93937.13;;;7.36;74.07
35778;BME280;21899;42.662;23.316;2024-03-02T01:36:30;93942.19;;;7.34;74.31
35778;BME280;21899;42.662;23.316;2024-03-02T01:38:55;93929.25;;;7.33;75.29
35778;BME280;21899;42.662;23.316;2024-03-02T01:41:21;93927.63;;;7.35;74.28
35778;BME280;21899;42.662;23.316;2024-03-02T01:43:46;93950.09;;;7.43;74.56
35778;BME280;21899;42.662;23.316;2024-03-02T01:46:12;93935.00;;;7.40;74.85
35778;BME280;21899;42.662;23.316;2024-03-02T01:48:37;93943.66;;;7.50;74.90
35778;BME280;21899;42.662;23.316;2024-03-02T01:51:03;93943.47;;;7.53;74.40
35778;BME280;21899;42.662;23.316;2024-03-02T01:53:31;93930.09;;;7.53;74.45
35778;BME280;21899;42.662;23.316;2024-03-02T01:55:57;93928.88;;;7.54;74.24
35778;BME280;21899;42.662;23.316;2024-03-02T01:58:22;93923.00;;;7.50;74.76
35778;BME280;21899;42.662;23.316;2024-03-02T02:00:48;93921.91;;;7.42;74.79
35778;BME280;21899;42.662;23.316;2024-03-02T02:03:13;93933.69;;;7.50;74.85
35778;BME280;21899;42.662;23.316;2024-03-02T02:05:38;93936.81;;;7.49;74.86
35778;BME280;21899;42.662;23.316;2024-03-02T02:08:04;93933.13;;;7.46;75.12
35778;BME280;21899;42.662;23.316;2024-03-02T02:10:30;93932.59;;;7.42;75.39
35778;BME280;21899;42.662;23.316;2024-03-02T02:12:56;93927.88;;;7.37;75.10
35778;BME280;21899;42.662;23.316;2024-03-02T02:15:31;93929.56;;;7.49;75.42
35778;BME280;21899;42.662;23.316;2024-03-02T02:17:58;93925.03;;;7.56;75.07
35778;BME280;21899;42.662;23.316;2024-03-02T02:20:24;93940.69;;;7.63;75.09
35778;BME280;21899;42.662;23.316;2024-03-02T02:23:05;93934.06;;;7.58;75.04
35778;BME280;21899;42.662;23.316;2024-03-02T02:25:33;93930.94;;;7.45;75.21
35778;BME280;21899;42.662;23.316;2024-03-02T02:27:58;93920.25;;;7.30;76.05
35778;BME280;21899;42.662;23.316;2024-03-02T02:30:26;93941.06;;;7.56;75.91
35778;BME280;21899;42.662;23.316;2024-03-02T02:32:52;93933.88;;;7.62;75.38
35778;BME280;21899;42.662;23.316;2024-03-02T02:35:17;93938.31;;;7.50;75.43
35778;BME280;21899;42.662;23.316;2024-03-02T02:37:44;93935.16;;;7.51;75.21
35778;BME280;21899;42.662;23.316;2024-03-02T02:40:11;93932.78;;;7.39;76.08
35778;BME280;21899;42.662;23.316;2024-03-02T02:42:38;93935.00;;;7.40;76.00
35778;BME280;21899;42.662;23.316;2024-03-02T02:45:04;93896.03;;;7.19;75.95
35778;BME280;21899;42.662;23.316;2024-03-02T02:47:30;93932.50;;;7.51;75.74
35778;BME280;21899;42.662;23.316;2024-03-02T02:49:55;93936.53;;;7.62;75.52
35778;BME280;21899;42.662;23.316;2024-03-02T02:52:21;93943.09;;;7.61;75.77
35778;BME280;21899;42.662;23.316;2024-03-02T02:54:46;93940.44;;;7.61;75.08
35778;BME280;21899;42.662;23.316;2024-03-02T02:57:12;93948.63;;;7.72;75.11
35778;BME280;21899;42.662;23.316;2024-03-02T02:59:37;93953.97;;;7.72;75.19
35778;BME280;21899;42.662;23.316;2024-03-02T03:02:03;93925.47;;;7.69;74.39
35778;BME280;21899;42.662;23.316;2024-03-02T03:04:29;93940.06;;;7.68;74.65
35778;BME280;21899;42.662;23.316;2024-03-02T03:06:54;93941.59;;;7.60;75.41
35778;BME280;21899;42.662;23.316;2024-03-02T03:09:22;93936.56;;;7.47;75.48
35778;BME280;21899;42.662;23.316;2024-03-02T03:11:50;93923.56;;;7.40;76.03
35778;BME280;21899;42.662;23.316;2024-03-02T03:14:16;93926.31;;;7.31;76.77
35778;BME280;21899;42.662;23.316;2024-03-02T03:16:41;93944.31;;;7.30;77.30
35778;BME280;21899;42.662;23.316;2024-03-02T03:19:07;93933.91;;;7.32;76.44
35778;BME280;21899;42.662;23.316;2024-03-02T03:21:32;93941.78;;;7.41;77.61
35778;BME280;21899;42.662;23.316;2024-03-02T03:23:57;93935.19;;;7.37;76.93
35778;BME280;21899;42.662;23.316;2024-03-02T03:26:23;93934.81;;;7.15;78.09
35778;BME280;21899;42.662;23.316;2024-03-02T03:28:48;93935.50;;;7.15;77.68
35778;BME280;21899;42.662;23.316;2024-03-02T03:31:14;93948.59;;;7.13;77.66
35778;BME280;21899;42.662;23.316;2024-03-02T03:33:39;93948.38;;;7.02;78.19
35778;BME280;21899;42.662;23.316;2024-03-02T03:36:05;93930.31;;;6.83;79.21
35778;BME280;21899;42.662;23.316;2024-03-02T03:38:30;93944.81;;;7.05;78.59
35778;BME280;21899;42.662;23.316;2024-03-02T03:40:56;93938.19;;;7.15;77.71
35778;BME280;21899;42.662;23.316;2024-03-02T03:43:21;93945.28;;;7.18;77.97
35778;BME280;21899;42.662;23.316;2024-03-02T03:45:47;93932.00;;;6.95;78.44
35778;BME280;21899;42.662;23.316;2024-03-02T03:48:12;93938.00;;;7.04;78.45
35778;BME280;21899;42.662;23.316;2024-03-02T03:50:38;93952.13;;;7.19;78.11
35778;BME280;21899;42.662;23.316;2024-03-02T03:53:03;93908.06;;;7.00;77.90
35778;BME280;21899;42.662;23.316;2024-03-02T03:55:29;93946.03;;;7.33;77.75
35778;BME280;21899;42.662;23.316;2024-03-02T03:57:54;93901.75;;;7.12;77.43
35778;BME280;21899;42.662;23.316;2024-03-02T04:00:20;93936.56;;;7.32;77.46
35778;BME280;21899;42.662;23.316;2024-03-02T04:02:46;93943.44;;;7.24;77.68
35778;BME280;21899;42.662;23.316;2024-03-02T04:05:12;93942.34;;;7.16;77.72
35778;BME280;21899;42.662;23.316;2024-03-02T04:07:37;93938.28;;;7.21;78.53
35778;BME280;21899;42.662;23.316;2024-03-02T04:10:07;93939.78;;;7.36;78.25
35778;BME280;21899;42.662;23.316;2024-03-02T04:12:33;93943.47;;;7.39;78.10
35778;BME280;21899;42.662;23.316;2024-03-02T04:15:00;93941.25;;;7.37;78.39
35778;BME280;21899;42.662;23.316;2024-03-02T04:17:26;93935.00;;;7.26;78.31
35778;BME280;21899;42.662;23.316;2024-03-02T04:19:52;93927.50;;;7.15;78.84
35778;BME280;21899;42.662;23.316;2024-03-02T04:22:17;93931.22;;;7.32;78.49
35778;BME280;21899;42.662;23.316;2024-03-02T04:24:43;93940.53;;;7.51;77.76
35778;BME280;21899;42.662;23.316;2024-03-02T04:27:08;93940.31;;;7.55;77.67
35778;BME280;21899;42.662;23.316;2024-03-02T04:29:34;93921.91;;;7.42;77.57
35778;BME280;21899;42.662;23.316;2024-03-02T04:31:59;93943.84;;;7.61;78.22
35778;BME280;21899;42.662;23.316;2024-03-02T04:34:25;93941.06;;;7.56;77.86
35778;BME280;21899;42.662;23.316;2024-03-02T04:36:50;93944.09;;;7.63;77.80
35778;BME280;21899;42.662;23.316;2024-03-02T04:39:16;93945.41;;;7.68;77.11
35778;BME280;21899;42.662;23.316;2024-03-02T04:41:41;93946.50;;;7.76;76.76
35778;BME280;21899;42.662;23.316;2024-03-02T04:44:07;93952.84;;;7.64;78.02
35778;BME280;21899;42.662;23.316;2024-03-02T04:46:33;93950.75;;;7.68;77.60
35778;BME280;21899;42.662;23.316;2024-03-02T04:48:58;93954.69;;;7.72;77.89
35778;BME280;21899;42.662;23.316;2024-03-02T04:51:24;93941.06;;;7.56;78.80
35778;BME280;21899;42.662;23.316;2024-03-02T04:53:49;93933.69;;;7.50;78.94
35778;BME280;21899;42.662;23.316;2024-03-02T04:56:15;93937.66;;;7.40;80.30
35778;BME280;21899;42.662;23.316;2024-03-02T04:58:59;93951.84;;;7.46;80.01
35778;BME280;21899;42.662;23.316;2024-03-02T05:01:24;93949.53;;;7.39;80.09
35778;BME280;21899;42.662;23.316;2024-03-02T05:03:50;93951.72;;;7.26;81.08
35778;BME280;21899;42.662;23.316;2024-03-02T05:06:15;93954.94;;;7.16;81.14
35778;BME280;21899;42.662;23.316;2024-03-02T05:08:41;93965.56;;;7.25;81.12
35778;BME280;21899;42.662;23.316;2024-03-02T05:11:07;93960.22;;;7.25;81.46
35778;BME280;21899;42.662;23.316;2024-03-02T05:13:50;93955.97;;;7.18;81.23
35778;BME280;21899;42.662;23.316;2024-03-02T05:16:16;93970.16;;;7.24;82.23
35778;BME280;21899;42.662;23.316;2024-03-02T05:18:41;93947.84;;;6.98;81.82
35778;BME280;21899;42.662;23.316;2024-03-02T05:21:07;93966.91;;;7.06;82.29
35778;BME280;21899;42.662;23.316;2024-03-02T05:23:32;93959.06;;;6.64;83.21
35778;BME280;21899;42.662;23.316;2024-03-02T05:25:58;93965.66;;;6.54;84.42
35778;BME280;21899;42.662;23.316;2024-03-02T05:28:24;93971.06;;;6.45;85.32
35778;BME280;21899;42.662;23.316;2024-03-02T05:30:49;93965.19;;;6.32;85.42
35778;BME280;21899;42.662;23.316;2024-03-02T05:33:15;93985.22;;;6.27;86.46
35778;BME280;21899;42.662;23.316;2024-03-02T05:35:40;93989.53;;;6.25;86.59
35778;BME280;21899;42.662;23.316;2024-03-02T05:38:06;93990.44;;;6.22;87.39
35778;BME280;21899;42.662;23.316;2024-03-02T05:40:31;93992.59;;;6.32;86.58
35778;BME280;21899;42.662;23.316;2024-03-02T05:42:57;93995.44;;;6.29;86.40
35778;BME280;21899;42.662;23.316;2024-03-02T05:45:22;93979.19;;;6.18;86.86
35778;BME280;21899;42.662;23.316;2024-03-02T05:47:48;93986.34;;;6.12;87.17
35778;BME280;21899;42.662;23.316;2024-03-02T05:50:13;93998.38;;;6.31;86.81
35778;BME280;21899;42.662;23.316;2024-03-02T05:52:39;93976.50;;;6.27;86.75
35778;BME280;21899;42.662;23.316;2024-03-02T05:55:04;94001.63;;;6.35;86.81
35778;BME280;21899;42.662;23.316;2024-03-02T05:57:30;93983.63;;;6.21;87.67
35778;BME280;21899;42.662;23.316;2024-03-02T06:00:20;93983.91;;;6.23;87.27
35778;BME280;21899;42.662;23.316;2024-03-02T06:02:47;93991.28;;;6.28;87.67
35778;BME280;21899;42.662;23.316;2024-03-02T06:05:12;93991.09;;;6.40;87.56
35778;BME280;21899;42.662;23.316;2024-03-02T06:07:38;93983.41;;;6.57;86.80
35778;BME280;21899;42.662;23.316;2024-03-02T06:10:04;93987.22;;;6.65;85.94
35778;BME280;21899;42.662;23.316;2024-03-02T06:12:31;93993.00;;;6.63;85.96
35778;BME280;21899;42.662;23.316;2024-03-02T06:14:57;94001.94;;;6.84;85.64
35778;BME280;21899;42.662;23.316;2024-03-02T06:17:23;94010.44;;;6.97;85.32
35778;BME280;21899;42.662;23.316;2024-03-02T06:19:48;94003.25;;;7.03;84.89
35778;BME280;21899;42.662;23.316;2024-03-02T06:22:14;93997.03;;;7.06;85.78
35778;BME280;21899;42.662;23.316;2024-03-02T06:24:39;93991.97;;;7.08;85.39
35778;BME280;21899;42.662;23.316;2024-03-02T06:27:05;93994.25;;;7.15;84.48
35778;BME280;21899;42.662;23.316;2024-03-02T06:29:34;94009.03;;;7.25;83.91
35778;BME280;21899;42.662;23.316;2024-03-02T06:31:59;94014.63;;;7.27;83.84
35778;BME280;21899;42.662;23.316;2024-03-02T06:34:25;94001.63;;;7.20;83.99
35778;BME280;21899;42.662;23.316;2024-03-02T06:36:50;94003.19;;;7.12;84.58
35778;BME280;21899;42.662;23.316;2024-03-02T06:39:16;94006.22;;;7.20;84.64
35778;BME280;21899;42.662;23.316;2024-03-02T06:41:41;94017.31;;;7.27;84.39
35778;BME280;21899;42.662;23.316;2024-03-02T06:44:12;94009.03;;;7.25;84.59
35778;BME280;21899;42.662;23.316;2024-03-02T06:46:38;94017.69;;;7.35;84.78
35778;BME280;21899;42.662;23.316;2024-03-02T06:49:03;94016.97;;;7.34;83.69
35778;BME280;21899;42.662;23.316;2024-03-02T06:51:29;94023.50;;;7.33;84.38
35778;BME280;21899;42.662;23.316;2024-03-02T06:53:54;94015.25;;;7.22;84.05
35778;BME280;21899;42.662;23.316;2024-03-02T06:56:21;94019.72;;;7.25;83.40
35778;BME280;21899;42.662;23.316;2024-03-02T06:58:46;94015.25;;;7.22;83.60
35778;BME280;21899;42.662;23.316;2024-03-02T07:01:12;94031.50;;;7.33;83.24
35778;BME280;21899;42.662;23.316;2024-03-02T07:03:38;94024.84;;;7.29;83.45
35778;BME280;21899;42.662;23.316;2024-03-02T07:06:05;94031.22;;;7.31;83.44
35778;BME280;21899;42.662;23.316;2024-03-02T07:08:30;94012.59;;;7.22;83.59
35778;BME280;21899;42.662;23.316;2024-03-02T07:10:56;94017.38;;;7.18;83.80
35778;BME280;21899;42.662;23.316;2024-03-02T07:13:22;94019.44;;;7.23;82.71
35778;BME280;21899;42.662;23.316;2024-03-02T07:15:48;94035.09;;;7.30;82.84
35778;BME280;21899;42.662;23.316;2024-03-02T07:18:25;94024.38;;;7.16;83.31
35778;BME280;21899;42.662;23.316;2024-03-02T07:20:51;94031.06;;;7.11;83.30
35778;BME280;21899;42.662;23.316;2024-03-02T07:23:16;94033.47;;;7.09;84.06
35778;BME280;21899;42.662;23.316;2024-03-02T07:25:42;94035.84;;;7.07;83.04
35778;BME280;21899;42.662;23.316;2024-03-02T07:28:07;94027.75;;;7.02;83.19
35778;BME280;21899;42.662;23.316;2024-03-02T07:30:33;94025.53;;;7.00;83.70
35778;BME280;21899;42.662;23.316;2024-03-02T07:32:59;94019.06;;;6.92;83.71
35778;BME280;21899;42.662;23.316;2024-03-02T07:35:25;94037.34;;;7.08;84.01
35778;BME280;21899;42.662;23.316;2024-03-02T07:37:53;94022.50;;;7.07;84.38
35778;BME280;21899;42.662;23.316;2024-03-02T07:40:21;94001.22;;;6.98;83.98
35778;BME280;21899;42.662;23.316;2024-03-02T07:42:46;94045.78;;;7.30;83.51
35778;BME280;21899;42.662;23.316;2024-03-02T07:45:12;94046.53;;;7.45;83.93
35778;BME280;21899;42.662;23.316;2024-03-02T07:47:38;94007.44;;;7.19;82.97
35778;BME280;21899;42.662;23.316;2024-03-02T07:50:03;94027.88;;;7.22;82.59
35778;BME280;21899;42.662;23.316;2024-03-02T07:52:32;94038.13;;;7.23;82.47
35778;BME280;21899;42.662;23.316;2024-03-02T07:54:57;94046.00;;;7.18;83.11
35778;BME280;21899;42.662;23.316;2024-03-02T07:57:23;94048.81;;;7.23;83.16
35778;BME280;21899;42.662;23.316;2024-03-02T07:59:48;94041.47;;;7.09;83.79
35778;BME280;21899;42.662;23.316;2024-03-02T08:02:14;94056.75;;;7.32;84.38
35778;BME280;21899;42.662;23.316;2024-03-02T08:04:40;94054.16;;;7.38;83.70
35778;BME280;21899;42.662;23.316;2024-03-02T08:07:06;94054.69;;;7.27;83.64
35778;BME280;21899;42.662;23.316;2024-03-02T08:09:32;94060.81;;;7.42;83.79
35778;BME280;21899;42.662;23.316;2024-03-02T08:11:57;94062.28;;;7.43;83.65
35778;BME280;21899;42.662;23.316;2024-03-02T08:14:23;94064.31;;;7.48;83.73
35778;BME280;21899;42.662;23.316;2024-03-02T08:16:49;94056.38;;;7.39;83.24
35778;BME280;21899;42.662;23.316;2024-03-02T08:19:15;94053.34;;;7.32;84.44
35778;BME280;21899;42.662;23.316;2024-03-02T08:21:42;94060.41;;;7.35;83.25
35778;BME280;21899;42.662;23.316;2024-03-02T08:24:08;94068.06;;;7.42;83.85
35778;BME280;21899;42.662;23.316;2024-03-02T08:26:33;94071.31;;;7.46;83.87
35778;BME280;21899;42.662;23.316;2024-03-02T08:28:59;94067.53;;;7.52;83.55
35778;BME280;21899;42.662;23.316;2024-03-02T08:31:27;94055.94;;;7.56;82.74
35778;BME280;21899;42.662;23.316;2024-03-02T08:33:52;94062.78;;;7.71;82.19
35778;BME280;21899;42.662;23.316;2024-03-02T08:36:19;94046.75;;;7.71;82.40
35778;BME280;21899;42.662;23.316;2024-03-02T08:38:45;94059.38;;;7.85;82.18
35778;BME280;21899;42.662;23.316;2024-03-02T08:41:11;94061.88;;;7.89;82.42
35778;BME280;21899;42.662;23.316;2024-03-02T08:43:40;94061.31;;;7.99;82.59
35778;BME280;21899;42.662;23.316;2024-03-02T08:46:06;94058.28;;;8.06;81.84
35778;BME280;21899;42.662;23.316;2024-03-02T08:48:32;94058.25;;;8.21;81.14
35778;BME280;21899;42.662;23.316;2024-03-02T08:50:57;94070.44;;;8.37;80.97
35778;BME280;21899;42.662;23.316;2024-03-02T08:53:23;94049.69;;;8.32;80.19
35778;BME280;21899;42.662;23.316;2024-03-02T08:55:49;94051.44;;;8.35;80.55
35778;BME280;21899;42.662;23.316;2024-03-02T08:58:15;94041.66;;;8.46;79.59
35778;BME280;21899;42.662;23.316;2024-03-02T09:00:40;94056.16;;;8.74;80.20
35778;BME280;21899;42.662;23.316;2024-03-02T09:03:06;94059.63;;;8.80;78.81
35778;BME280;21899;42.662;23.316;2024-03-02T09:05:32;94069.16;;;9.01;78.72
35778;BME280;21899;42.662;23.316;2024-03-02T09:07:58;94072.28;;;9.15;77.43
35778;BME280;21899;42.662;23.316;2024-03-02T09:10:23;94058.41;;;9.36;76.97
35778;BME280;21899;42.662;23.316;2024-03-02T09:12:48;94066.94;;;9.60;77.12
35778;BME280;21899;42.662;23.316;2024-03-02T09:15:14;94063.63;;;9.71;75.60
35778;BME280;21899;42.662;23.316;2024-03-02T09:17:43;94069.38;;;9.84;74.43
35778;BME280;21899;42.662;23.316;2024-03-02T09:20:09;94066.44;;;9.82;72.86
35778;BME280;21899;42.662;23.316;2024-03-02T09:22:34;94077.19;;;9.88;72.92
35778;BME280;21899;42.662;23.316;2024-03-02T09:25:00;94077.00;;;9.91;72.11
35778;BME280;21899;42.662;23.316;2024-03-02T09:27:25;94058.81;;;9.75;71.27
35778;BME280;21899;42.662;23.316;2024-03-02T09:29:51;94072.44;;;9.71;71.91
35778;BME280;21899;42.662;23.316;2024-03-02T09:32:16;94063.63;;;9.45;70.99
35778;BME280;21899;42.662;23.316;2024-03-02T09:34:42;94079.09;;;9.56;72.60
35778;BME280;21899;42.662;23.316;2024-03-02T09:37:08;94083.34;;;9.48;74.38
35778;BME280;21899;42.662;23.316;2024-03-02T09:39:33;94075.28;;;9.42;74.63
35778;BME280;21899;42.662;23.316;2024-03-02T09:42:00;94086.19;;;9.39;73.98
35778;BME280;21899;42.662;23.316;2024-03-02T09:44:29;94086.78;;;9.28;74.25
35778;BME280;21899;42.662;23.316;2024-03-02T09:46:55;94074.13;;;9.09;74.90
35778;BME280;21899;42.662;23.316;2024-03-02T09:49:22;94079.22;;;9.07;75.62
35778;BME280;21899;42.662;23.316;2024-03-02T09:51:48;94090.88;;;9.04;74.97
35778;BME280;21899;42.662;23.316;2024-03-02T09:54:16;94088.97;;;8.89;75.59
35778;BME280;21899;42.662;23.316;2024-03-02T09:56:41;94086.34;;;8.95;75.78
35778;BME280;21899;42.662;23.316;2024-03-02T09:59:07;94089.91;;;8.86;75.40
35778;BME280;21899;42.662;23.316;2024-03-02T10:01:33;94094.72;;;8.82;75.78
35778;BME280;21899;42.662;23.316;2024-03-02T10:03:59;94085.72;;;8.65;77.13
35778;BME280;21899;42.662;23.316;2024-03-02T10:06:26;94084.38;;;8.55;77.55
35778;BME280;21899;42.662;23.316;2024-03-02T10:08:54;94077.47;;;8.49;78.19
35778;BME280;21899;42.662;23.316;2024-03-02T10:11:30;94083.34;;;8.38;78.04
35778;BME280;21899;42.662;23.316;2024-03-02T10:14:11;94081.41;;;8.24;80.05
35778;BME280;21899;42.662;23.316;2024-03-02T10:16:42;94085.94;;;8.18;80.86
35778;BME280;21899;42.662;23.316;2024-03-02T10:19:23;94082.59;;;8.23;79.98
35778;BME280;21899;42.662;23.316;2024-03-02T10:21:50;94087.22;;;8.08;80.24
35778;BME280;21899;42.662;23.316;2024-03-02T10:24:21;94085.38;;;8.14;80.38
35778;BME280;21899;42.662;23.316;2024-03-02T10:26:47;94088.31;;;8.16;80.47
35778;BME280;21899;42.662;23.316;2024-03-02T10:29:13;94077.91;;;8.03;80.42
35778;BME280;21899;42.662;23.316;2024-03-02T10:31:40;94082.97;;;8.01;81.08
35778;BME280;21899;42.662;23.316;2024-03-02T10:34:06;94084.47;;;8.02;81.33
35778;BME280;21899;42.662;23.316;2024-03-02T10:36:35;94075.63;;;8.11;81.00
35778;BME280;21899;42.662;23.316;2024-03-02T10:39:04;94073.09;;;8.07;82.04
35778;BME280;21899;42.662;23.316;2024-03-02T10:41:35;94080.41;;;8.07;81.93
35778;BME280;21899;42.662;23.316;2024-03-02T10:44:05;94082.34;;;8.21;80.70
35778;BME280;21899;42.662;23.316;2024-03-02T10:46:33;94076.53;;;8.22;80.73
35778;BME280;21899;42.662;23.316;2024-03-02T10:48:59;94046.84;;;8.06;81.02
35778;BME280;21899;42.662;23.316;2024-03-02T10:51:26;94068.31;;;7.97;81.32
35778;BME280;21899;42.662;23.316;2024-03-02T10:53:53;94071.19;;;8.08;80.10
35778;BME280;21899;42.662;23.316;2024-03-02T10:59:16;94068.44;;;8.02;81.61
35778;BME280;21899;42.662;23.316;2024-03-02T11:01:47;94065.66;;;8.11;81.68
35778;BME280;21899;42.662;23.316;2024-03-02T11:04:16;94067.31;;;8.23;81.43
35778;BME280;21899;42.662;23.316;2024-03-02T11:06:50;94075.06;;;8.36;80.96
35778;BME280;21899;42.662;23.316;2024-03-02T11:09:20;94056.06;;;8.34;80.68
35778;BME280;21899;42.662;23.316;2024-03-02T11:11:54;94068.03;;;8.24;81.75
35778;BME280;21899;42.662;23.316;2024-03-02T11:14:24;94064.75;;;8.29;80.50
35778;BME280;21899;42.662;23.316;2024-03-02T11:16:51;94054.59;;;8.33;79.25
35778;BME280;21899;42.662;23.316;2024-03-02T11:19:18;94052.38;;;8.32;80.03
35778;BME280;21899;42.662;23.316;2024-03-02T11:21:44;94059.19;;;8.18;80.81
35778;BME280;21899;42.662;23.316;2024-03-02T11:26:49;94056.22;;;8.16;80.48
35778;BME280;21899;42.662;23.316;2024-03-02T11:32:01;94052.56;;;8.13;81.16
35778;BME280;21899;42.662;23.316;2024-03-02T11:34:31;94059.75;;;8.22;81.27
35778;BME280;21899;42.662;23.316;2024-03-02T11:37:03;94056.22;;;8.16;81.08
35778;BME280;21899;42.662;23.316;2024-03-02T11:39:29;94052.00;;;8.24;81.42
35778;BME280;21899;42.662;23.316;2024-03-02T11:41:58;94065.84;;;8.22;81.84
35778;BME280;21899;42.662;23.316;2024-03-02T11:44:27;94058.66;;;8.29;81.97
35778;BME280;21899;42.662;23.316;2024-03-02T11:46:59;94038.19;;;8.11;82.22
35778;BME280;21899;42.662;23.316;2024-03-02T11:49:38;94038.44;;;8.13;81.33
35778;BME280;21899;42.662;23.316;2024-03-02T11:52:05;94062.53;;;8.27;80.81
35778;BME280;21899;42.662;23.316;2024-03-02T11:54:33;94053.66;;;8.21;80.30
35778;BME280;21899;42.662;23.316;2024-03-02T11:57:02;94053.59;;;8.31;79.86
35778;BME280;21899;42.662;23.316;2024-03-02T11:59:29;94058.47;;;8.32;80.15
35778;BME280;21899;42.662;23.316;2024-03-02T12:01:55;94046.00;;;8.14;80.81
35778;BME280;21899;42.662;23.316;2024-03-02T12:04:24;94054.41;;;8.22;80.98
35778;BME280;21899;42.662;23.316;2024-03-02T12:06:57;94056.59;;;8.23;81.41
35778;BME280;21899;42.662;23.316;2024-03-02T12:09:27;94053.84;;;8.18;81.41
35778;BME280;21899;42.662;23.316;2024-03-02T12:12:07;94044.81;;;8.15;81.07
35778;BME280;21899;42.662;23.316;2024-03-02T12:14:34;94034.59;;;7.99;81.59
35778;BME280;21899;42.662;23.316;2024-03-02T12:17:00;94043.53;;;8.11;82.14
35778;BME280;21899;42.662;23.316;2024-03-02T12:19:26;94051.38;;;8.29;82.49
35778;BME280;21899;42.662;23.316;2024-03-02T12:21:53;94054.75;;;8.44;81.51
35778;BME280;21899;42.662;23.316;2024-03-02T12:24:20;94059.16;;;8.47;81.63
35778;BME280;21899;42.662;23.316;2024-03-02T12:26:46;94061.00;;;8.56;80.70
35778;BME280;21899;42.662;23.316;2024-03-02T12:29:13;94047.88;;;8.58;80.20
35778;BME280;21899;42.662;23.316;2024-03-02T12:31:40;94048.59;;;8.73;79.95
35778;BME280;21899;42.662;23.316;2024-03-02T12:34:06;94067.94;;;8.82;80.33
35778;BME280;21899;42.662;23.316;2024-03-02T12:36:38;94029.88;;;8.73;80.58
35778;BME280;21899;42.662;23.316;2024-03-02T12:39:03;94064.50;;;8.96;80.03
35778;BME280;21899;42.662;23.316;2024-03-02T12:41:29;94060.94;;;9.05;78.51
35778;BME280;21899;42.662;23.316;2024-03-02T12:43:54;94056.06;;;9.04;78.95
35778;BME280;21899;42.662;23.316;2024-03-02T12:46:20;94059.19;;;9.02;78.99
35778;BME280;21899;42.662;23.316;2024-03-02T12:48:45;94058.00;;;9.03;78.88
35778;BME280;21899;42.662;23.316;2024-03-02T12:51:11;94059.13;;;8.96;78.31
35778;BME280;21899;42.662;23.316;2024-03-02T12:53:37;94061.88;;;9.02;77.85
35778;BME280;21899;42.662;23.316;2024-03-02T12:56:03;94059.94;;;9.02;79.20
35778;BME280;21899;42.662;23.316;2024-03-02T12:58:29;94061.69;;;9.06;77.81
35778;BME280;21899;42.662;23.316;2024-03-02T13:01:08;94058.06;;;9.09;78.11
35778;BME280;21899;42.662;23.316;2024-03-02T13:03:40;94051.25;;;9.08;77.61
35778;BME280;21899;42.662;23.316;2024-03-02T13:06:07;94059.53;;;9.10;78.58
35778;BME280;21899;42.662;23.316;2024-03-02T13:08:33;94059.47;;;9.24;78.03
35778;BME280;21899;42.662;23.316;2024-03-02T13:10:59;94065.88;;;9.32;77.27
35778;BME280;21899;42.662;23.316;2024-03-02T13:13:24;94063.50;;;9.34;77.95